createdAt,value
2022-10-02T00:00:02.412Z,11.40
2022-10-02T00:02:40.059Z,11.40
2022-10-02T00:05:14.470Z,11.40
2022-10-02T00:07:44.800Z,11.40
2022-10-02T00:10:26.701Z,11.40
2022-10-02T00:12:57.795Z,11.40
2022-10-02T00:15:28.836Z,11.40
2022-10-02T00:18:02.388Z,11.40
2022-10-02T00:20:43.387Z,11.40
2022-10-02T00:23:39.070Z,11.40
2022-10-02T00:26:23.722Z,11.40
2022-10-02T00:29:14.847Z,11.40
2022-10-02T00:31:54.127Z,11.40
2022-10-02T00:34:38.048Z,11.40
2022-10-02T00:37:04.817Z,11.40
2022-10-02T00:39:38.368Z,11.40
2022-10-02T00:42:17.695Z,11.40
2022-10-02T00:44:54.086Z,11.40
2022-10-02T00:47:27.283Z,11.40
2022-10-02T00:50:01.974Z,11.40
2022-10-02T00:53:10.896Z,11.50
2022-10-02T00:56:04.301Z,11.50
2022-10-02T00:58:49.155Z,11.50
2022-10-02T01:01:29.075Z,11.50
2022-10-02T01:03:56.410Z,11.50
2022-10-02T01:06:25.891Z,11.50
2022-10-02T01:08:52.876Z,11.50
2022-10-02T01:11:27.021Z,11.50
2022-10-02T01:13:54.295Z,11.50
2022-10-02T01:16:21.279Z,11.50
2022-10-02T01:18:48.269Z,11.50
2022-10-02T01:21:38.038Z,11.50
2022-10-02T01:24:22.055Z,11.50
2022-10-02T01:26:48.960Z,11.50
2022-10-02T01:29:15.676Z,11.50
2022-10-02T01:31:42.934Z,11.50
2022-10-02T01:34:10.578Z,11.50
2022-10-02T01:36:37.889Z,11.40
2022-10-02T01:39:05.228Z,11.40
2022-10-02T01:41:39.775Z,11.40
2022-10-02T01:44:06.958Z,11.40
2022-10-02T01:46:48.280Z,11.40
2022-10-02T01:49:24.141Z,11.40
2022-10-02T01:52:09.654Z,11.40
2022-10-02T01:55:00.602Z,11.30
2022-10-02T01:57:41.101Z,11.30
2022-10-02T02:00:11.098Z,11.30
2022-10-02T02:02:52.991Z,11.30
2022-10-02T02:05:28.683Z,11.30
2022-10-02T02:08:23.489Z,11.30
2022-10-02T02:11:10.409Z,11.30
2022-10-02T02:14:12.420Z,11.30
2022-10-02T02:16:45.257Z,11.30
2022-10-02T02:19:14.872Z,11.30
2022-10-02T02:21:46.802Z,11.30
2022-10-02T02:24:23.654Z,11.30
2022-10-02T02:26:54.226Z,11.30
2022-10-02T02:29:23.800Z,11.30
2022-10-02T02:31:58.101Z,11.30
2022-10-02T02:34:40.978Z,11.30
2022-10-02T02:37:13.798Z,11.40
2022-10-02T02:39:47.269Z,11.40
2022-10-02T02:42:18.220Z,11.40
2022-10-02T02:45:04.008Z,11.40
2022-10-02T02:47:41.929Z,11.40
2022-10-02T02:50:15.183Z,11.40
2022-10-02T02:52:50.273Z,11.40
2022-10-02T02:55:24.092Z,11.40
2022-10-02T02:58:09.580Z,11.40
2022-10-02T03:00:36.664Z,11.40
2022-10-02T03:03:03.852Z,11.40
2022-10-02T03:05:32.121Z,11.40
2022-10-02T03:08:05.998Z,11.40
2022-10-02T03:10:41.799Z,11.40
2022-10-02T03:13:42.753Z,11.40
2022-10-02T03:16:36.593Z,11.40
2022-10-02T03:19:24.695Z,11.40
2022-10-02T03:21:51.428Z,11.40
2022-10-02T03:24:29.772Z,11.50
2022-10-02T03:27:44.050Z,11.50
2022-10-02T03:30:13.336Z,11.40
2022-10-02T03:32:43.897Z,11.50
2022-10-02T03:35:13.130Z,11.50
2022-10-02T03:37:45.807Z,11.50
2022-10-02T03:40:12.617Z,11.50
2022-10-02T03:42:40.101Z,11.50
2022-10-02T03:45:07.505Z,11.50
2022-10-02T03:47:34.617Z,11.50
2022-10-02T03:50:01.422Z,11.50
2022-10-02T03:52:31.216Z,11.60
2022-10-02T03:55:04.318Z,11.60
2022-10-02T03:57:33.947Z,11.60
2022-10-02T04:00:08.998Z,11.60
2022-10-02T04:02:58.637Z,11.60
2022-10-02T04:05:30.762Z,11.60
2022-10-02T04:08:05.060Z,11.60
2022-10-02T04:10:54.838Z,11.70
2022-10-02T04:13:32.151Z,11.70
2022-10-02T04:16:28.433Z,11.70
2022-10-02T04:19:03.913Z,11.80
2022-10-02T04:21:36.600Z,11.80
2022-10-02T04:24:26.137Z,11.80
2022-10-02T04:27:04.557Z,11.80
2022-10-02T04:29:39.916Z,11.80
2022-10-02T04:32:23.506Z,11.80
2022-10-02T04:34:50.423Z,11.90
2022-10-02T04:37:32.102Z,11.90
2022-10-02T04:40:30.632Z,11.90
2022-10-02T04:43:11.916Z,11.90
2022-10-02T04:45:54.113Z,11.90
2022-10-02T04:48:54.222Z,11.90
2022-10-02T04:51:41.098Z,12.00
2022-10-02T04:54:24.655Z,12.00
2022-10-02T04:57:20.419Z,11.90
2022-10-02T05:00:11.432Z,11.90
2022-10-02T05:02:49.604Z,11.90
2022-10-02T05:05:31.845Z,11.90
2022-10-02T05:08:16.802Z,11.90
2022-10-02T05:11:04.963Z,11.80
2022-10-02T05:13:47.166Z,11.90
2022-10-02T05:16:41.472Z,11.90
2022-10-02T05:19:41.143Z,11.80
2022-10-02T05:22:29.819Z,11.80
2022-10-02T05:25:07.672Z,11.80
2022-10-02T05:27:59.526Z,11.80
2022-10-02T05:30:36.463Z,11.90
2022-10-02T05:33:25.190Z,11.90
2022-10-02T05:36:20.435Z,11.90
2022-10-02T05:39:12.042Z,11.90
2022-10-02T05:41:45.532Z,11.90
2022-10-02T05:44:35.879Z,11.90
2022-10-02T05:47:11.886Z,11.90
2022-10-02T05:49:50.949Z,11.90
2022-10-02T05:52:23.730Z,12.00
2022-10-02T05:54:57.919Z,12.00
2022-10-02T05:57:41.375Z,12.00
2022-10-02T06:00:35.587Z,12.00
2022-10-02T06:03:11.971Z,12.00
2022-10-02T06:06:00.291Z,12.00
2022-10-02T06:09:00.740Z,12.00
2022-10-02T06:11:35.092Z,12.00
2022-10-02T06:14:19.980Z,12.00
2022-10-02T06:17:02.233Z,12.10
2022-10-02T06:19:32.964Z,12.10
2022-10-02T06:22:11.745Z,12.10
2022-10-02T06:24:52.708Z,12.10
2022-10-02T06:27:46.821Z,12.10
2022-10-02T06:30:17.183Z,12.20
2022-10-02T06:32:48.975Z,12.20
2022-10-02T06:35:18.570Z,12.30
2022-10-02T06:37:55.071Z,12.40
2022-10-02T06:40:42.830Z,12.40
2022-10-02T06:43:18.672Z,12.50
2022-10-02T06:46:10.982Z,12.60
2022-10-02T06:49:00.399Z,12.70
2022-10-02T06:51:53.981Z,12.80
2022-10-02T06:54:58.362Z,12.90
2022-10-02T06:57:48.549Z,13.00
2022-10-02T07:00:19.742Z,13.20
2022-10-02T07:03:01.707Z,13.30
2022-10-02T07:05:53.412Z,13.40
2022-10-02T07:08:32.090Z,13.50
2022-10-02T07:11:28.399Z,13.60
2022-10-02T07:14:04.044Z,13.70
2022-10-02T07:16:55.569Z,13.70
2022-10-02T07:19:49.968Z,13.80
2022-10-02T07:22:45.459Z,13.80
2022-10-02T07:25:31.204Z,13.80
2022-10-02T07:28:01.159Z,13.90
2022-10-02T07:30:56.668Z,13.90
2022-10-02T07:34:00.405Z,13.90
2022-10-02T07:36:46.046Z,13.90
2022-10-02T07:39:31.430Z,14.00
2022-10-02T07:42:12.618Z,14.00
2022-10-02T07:45:05.260Z,14.10
2022-10-02T07:48:17.390Z,14.10
2022-10-02T07:51:37.893Z,14.10
2022-10-02T07:54:30.119Z,14.20
2022-10-02T07:57:07.610Z,14.20
2022-10-02T07:59:40.505Z,14.30
2022-10-02T08:02:15.754Z,14.40
2022-10-02T08:04:42.923Z,14.50
2022-10-02T08:07:10.377Z,14.60
2022-10-02T08:09:43.203Z,14.60
2022-10-02T08:12:28.906Z,14.70
2022-10-02T08:14:58.605Z,14.70
2022-10-02T08:17:45.030Z,14.70
2022-10-02T08:20:17.895Z,14.70
2022-10-02T08:22:53.934Z,14.70
2022-10-02T08:25:37.826Z,14.70
2022-10-02T08:28:28.217Z,14.80
2022-10-02T08:30:55.146Z,14.90
2022-10-02T08:33:22.971Z,15.20
2022-10-02T08:36:02.376Z,15.50
2022-10-02T08:38:54.578Z,15.70
2022-10-02T08:41:30.903Z,15.90
2022-10-02T08:44:39.527Z,16.00
2022-10-02T08:47:28.934Z,16.00
2022-10-02T08:50:30.043Z,16.00
2022-10-02T08:53:34.506Z,15.90
2022-10-02T08:56:33.697Z,15.90
2022-10-02T08:59:00.656Z,15.80
2022-10-02T09:02:00.104Z,15.80
2022-10-02T09:04:59.586Z,15.80
2022-10-02T09:07:39.565Z,16.00
2022-10-02T09:10:37.739Z,16.20
2022-10-02T09:13:23.407Z,16.40
2022-10-02T09:16:10.396Z,16.50
2022-10-02T09:19:21.940Z,16.60
2022-10-02T09:21:48.769Z,16.60
2022-10-02T09:24:46.899Z,16.70
2022-10-02T09:27:31.532Z,16.70
2022-10-02T09:30:04.241Z,16.60
2022-10-02T09:33:12.715Z,16.60
2022-10-02T09:36:16.823Z,16.60
2022-10-02T09:38:52.551Z,16.50
2022-10-02T09:41:57.262Z,16.40
2022-10-02T09:45:02.182Z,16.40
2022-10-02T09:47:47.937Z,16.30
2022-10-02T09:50:23.673Z,16.20
2022-10-02T09:53:06.032Z,16.20
2022-10-02T09:55:37.010Z,16.20
2022-10-02T09:58:28.948Z,16.20
2022-10-02T10:01:45.337Z,16.30
2022-10-02T10:04:42.022Z,16.50
2022-10-02T10:07:39.420Z,16.60
2022-10-02T10:10:31.056Z,16.70
2022-10-02T10:12:58.042Z,16.90
2022-10-02T10:15:46.868Z,17.00
2022-10-02T10:18:47.903Z,17.10
2022-10-02T10:21:52.853Z,17.00
2022-10-02T10:24:31.961Z,16.90
2022-10-02T10:27:17.649Z,16.80
2022-10-02T10:30:04.130Z,16.60
2022-10-02T10:33:01.375Z,16.50
2022-10-02T10:35:40.325Z,16.40
2022-10-02T10:38:32.967Z,16.20
2022-10-02T10:41:02.569Z,16.10
2022-10-02T10:43:51.694Z,16.00
2022-10-02T10:46:45.936Z,15.90
2022-10-02T10:49:35.385Z,15.90
2022-10-02T10:52:28.497Z,15.80
2022-10-02T10:55:07.493Z,15.70
2022-10-02T10:58:01.005Z,15.60
2022-10-02T11:00:47.505Z,15.60
2022-10-02T11:03:36.530Z,15.60
2022-10-02T11:06:22.290Z,15.50
2022-10-02T11:09:23.502Z,15.40
2022-10-02T11:12:00.652Z,15.40
2022-10-02T11:14:47.186Z,15.30
2022-10-02T11:17:40.590Z,15.20
2022-10-02T11:20:17.706Z,15.10
2022-10-02T11:22:58.308Z,15.00
2022-10-02T11:25:52.795Z,14.90
2022-10-02T11:29:00.298Z,14.90
2022-10-02T11:31:47.173Z,14.80
2022-10-02T11:34:50.822Z,14.80
2022-10-02T11:37:39.054Z,14.70
2022-10-02T11:40:23.010Z,14.70
2022-10-02T11:43:11.445Z,14.80
2022-10-02T11:46:02.842Z,14.70
2022-10-02T11:48:51.521Z,14.70
2022-10-02T11:51:33.224Z,14.80
2022-10-02T11:54:19.288Z,14.80
2022-10-02T11:57:07.570Z,14.90
2022-10-02T12:00:07.707Z,15.00
2022-10-02T12:03:17.117Z,15.00
2022-10-02T12:06:15.284Z,15.00
2022-10-02T12:08:58.295Z,15.10
2022-10-02T12:11:44.855Z,15.10
2022-10-02T12:14:50.530Z,15.10
2022-10-02T12:17:41.453Z,15.00
2022-10-02T12:20:44.140Z,15.00
2022-10-02T12:23:58.634Z,15.10
2022-10-02T12:26:58.921Z,15.00
2022-10-02T12:29:41.039Z,15.00
2022-10-02T12:32:36.512Z,15.00
2022-10-02T12:35:42.380Z,15.10
2022-10-02T12:38:47.784Z,15.10
2022-10-02T12:41:42.572Z,15.20
2022-10-02T12:44:34.619Z,15.20
2022-10-02T12:47:20.996Z,15.30
2022-10-02T12:50:24.523Z,15.30
2022-10-02T12:53:23.208Z,15.40
2022-10-02T12:56:27.534Z,15.60
2022-10-02T12:59:00.161Z,15.70
2022-10-02T13:01:43.158Z,15.90
2022-10-02T13:04:25.139Z,16.00
2022-10-02T13:07:41.506Z,16.20
2022-10-02T13:10:37.082Z,16.30
2022-10-02T13:13:25.458Z,16.40
2022-10-02T13:16:08.476Z,16.60
2022-10-02T13:19:19.333Z,16.70
2022-10-02T13:22:17.197Z,16.90
2022-10-02T13:25:12.693Z,17.10
2022-10-02T13:27:49.808Z,17.30
2022-10-02T13:30:17.564Z,17.40
2022-10-02T13:32:56.444Z,17.50
2022-10-02T13:35:47.055Z,17.50
2022-10-02T13:38:33.010Z,17.50
2022-10-02T13:41:05.834Z,17.50
2022-10-02T13:43:37.601Z,17.50
2022-10-02T13:46:44.985Z,17.40
2022-10-02T13:49:20.924Z,17.30
2022-10-02T13:52:10.822Z,17.30
2022-10-02T13:54:57.728Z,17.20
2022-10-02T13:57:55.763Z,17.20
2022-10-02T14:00:37.699Z,17.20
2022-10-02T14:03:34.707Z,17.30
2022-10-02T14:06:15.553Z,17.40
2022-10-02T14:09:01.607Z,17.40
2022-10-02T14:11:56.507Z,17.50
2022-10-02T14:14:56.300Z,17.50
2022-10-02T14:17:37.310Z,17.50
2022-10-02T14:20:53.798Z,17.50
2022-10-02T14:23:20.585Z,17.40
2022-10-02T14:26:17.208Z,17.40
2022-10-02T14:28:55.820Z,17.30
2022-10-02T14:31:42.079Z,17.20
2022-10-02T14:34:21.741Z,17.10
2022-10-02T14:37:16.813Z,17.10
2022-10-02T14:39:45.650Z,17.10
2022-10-02T14:42:21.920Z,17.20
2022-10-02T14:45:01.104Z,17.40
2022-10-02T14:47:46.859Z,17.50
2022-10-02T14:50:23.536Z,17.80
2022-10-02T14:53:19.879Z,18.00
2022-10-02T14:55:49.870Z,18.20
2022-10-02T14:58:42.730Z,18.40
2022-10-02T15:01:22.860Z,18.60
2022-10-02T15:04:22.488Z,18.70
2022-10-02T15:07:06.973Z,18.70
2022-10-02T15:09:52.714Z,18.70
2022-10-02T15:12:30.129Z,18.70
2022-10-02T15:15:11.833Z,18.60
2022-10-02T15:17:57.396Z,18.40
2022-10-02T15:20:33.352Z,18.20
2022-10-02T15:23:03.447Z,18.00
2022-10-02T15:25:39.342Z,17.80
2022-10-02T15:28:35.046Z,17.70
2022-10-02T15:31:23.326Z,17.50
2022-10-02T15:33:56.475Z,17.30
2022-10-02T15:36:32.415Z,17.20
2022-10-02T15:39:23.929Z,17.10
2022-10-02T15:42:05.133Z,17.10
2022-10-02T15:44:44.468Z,16.90
2022-10-02T15:47:30.052Z,16.80
2022-10-02T15:50:29.758Z,16.70
2022-10-02T15:53:34.459Z,16.50
2022-10-02T15:56:19.780Z,16.40
2022-10-02T15:58:59.186Z,16.30
2022-10-02T16:01:52.433Z,16.30
2022-10-02T16:04:26.361Z,16.20
2022-10-02T16:07:02.351Z,16.20
2022-10-02T16:09:44.765Z,16.20
2022-10-02T16:12:17.598Z,16.10
2022-10-02T16:14:52.879Z,16.10
2022-10-02T16:17:54.647Z,16.10
2022-10-02T16:20:36.648Z,16.00
2022-10-02T16:23:27.542Z,16.00
2022-10-02T16:26:23.750Z,15.90
2022-10-02T16:29:16.813Z,15.90
2022-10-02T16:32:10.448Z,15.90
2022-10-02T16:34:56.505Z,15.90
2022-10-02T16:37:35.126Z,15.80
2022-10-02T16:40:13.813Z,15.80
2022-10-02T16:42:57.892Z,15.70
2022-10-02T16:45:51.939Z,15.70
2022-10-02T16:48:25.776Z,15.70
2022-10-02T16:51:30.787Z,15.70
2022-10-02T16:54:02.411Z,15.60
2022-10-02T16:56:42.510Z,15.60
2022-10-02T16:59:09.783Z,15.60
2022-10-02T17:02:13.250Z,15.50
2022-10-02T17:04:54.826Z,15.50
2022-10-02T17:07:50.185Z,15.40
2022-10-02T17:10:33.312Z,15.40
2022-10-02T17:13:13.533Z,15.40
2022-10-02T17:15:49.916Z,15.30
2022-10-02T17:18:41.362Z,15.30
2022-10-02T17:22:02.836Z,15.20
2022-10-02T17:24:52.849Z,15.10
2022-10-02T17:27:53.225Z,15.10
2022-10-02T17:30:27.222Z,15.00
2022-10-02T17:33:15.572Z,14.90
2022-10-02T17:35:54.559Z,14.80
2022-10-02T17:38:50.814Z,14.80
2022-10-02T17:41:42.623Z,14.70
2022-10-02T17:44:22.340Z,14.70
2022-10-02T17:47:02.951Z,14.60
2022-10-02T17:49:40.712Z,14.60
2022-10-02T17:52:51.790Z,14.60
2022-10-02T17:55:51.199Z,14.50
2022-10-02T17:58:37.014Z,14.50
2022-10-02T18:01:24.215Z,14.50
2022-10-02T18:04:24.750Z,14.50
2022-10-02T18:07:39.717Z,14.50
2022-10-02T18:10:22.851Z,14.40
2022-10-02T18:13:17.650Z,14.40
2022-10-02T18:16:22.175Z,14.30
2022-10-02T18:19:02.053Z,14.20
2022-10-02T18:21:54.689Z,14.20
2022-10-02T18:25:04.220Z,14.10
2022-10-02T18:27:55.653Z,14.10
2022-10-02T18:30:38.266Z,14.00
2022-10-02T18:33:36.319Z,14.00
2022-10-02T18:36:31.647Z,14.00
2022-10-02T18:39:25.922Z,14.00
2022-10-02T18:41:56.023Z,13.90
2022-10-02T18:44:47.868Z,13.90
2022-10-02T18:47:31.663Z,13.90
2022-10-02T18:50:14.600Z,13.80
2022-10-02T18:52:48.623Z,13.70
2022-10-02T18:55:41.065Z,13.70
2022-10-02T18:58:34.169Z,13.60
2022-10-02T19:01:06.286Z,13.50
2022-10-02T19:04:10.171Z,13.40
2022-10-02T19:07:02.967Z,13.30
2022-10-02T19:09:31.106Z,13.20
2022-10-02T19:12:22.154Z,13.10
2022-10-02T19:14:55.776Z,13.00
2022-10-02T19:17:27.578Z,12.80
2022-10-02T19:19:55.801Z,12.70
2022-10-02T19:22:26.123Z,12.60
2022-10-02T19:25:04.327Z,12.50
2022-10-02T19:27:34.567Z,12.50
2022-10-02T19:30:07.672Z,12.40
2022-10-02T19:32:41.285Z,12.30
2022-10-02T19:35:23.423Z,12.30
2022-10-02T19:37:53.794Z,12.20
2022-10-02T19:40:33.427Z,12.10
2022-10-02T19:43:08.761Z,12.10
2022-10-02T19:45:40.468Z,12.10
2022-10-02T19:48:10.342Z,12.00
2022-10-02T19:50:42.316Z,12.00
2022-10-02T19:53:34.214Z,12.00
2022-10-02T19:56:28.392Z,12.00
2022-10-02T19:59:25.155Z,12.00
2022-10-02T20:01:54.419Z,12.00
2022-10-02T20:04:28.472Z,12.00
2022-10-02T20:06:59.055Z,12.00
2022-10-02T20:10:14.992Z,12.00
2022-10-02T20:13:08.480Z,12.00
2022-10-02T20:15:58.132Z,12.10
2022-10-02T20:18:25.463Z,12.10
2022-10-02T20:21:00.737Z,12.20
2022-10-02T20:23:31.860Z,12.30
2022-10-02T20:26:05.999Z,12.40
2022-10-02T20:28:41.533Z,12.50
2022-10-02T20:31:43.014Z,12.70
2022-10-02T20:34:23.743Z,12.80
2022-10-02T20:37:26.251Z,13.00
2022-10-02T20:40:14.409Z,13.10
2022-10-02T20:42:50.920Z,13.20
2022-10-02T20:45:18.211Z,13.20
2022-10-02T20:47:54.067Z,13.30
2022-10-02T20:50:33.163Z,13.30
2022-10-02T20:53:13.206Z,13.30
2022-10-02T20:55:58.929Z,13.20
2022-10-02T20:58:40.816Z,13.20
2022-10-02T21:01:18.183Z,13.20
2022-10-02T21:04:28.374Z,13.10
2022-10-02T21:07:37.217Z,13.10
2022-10-02T21:10:25.466Z,13.00
2022-10-02T21:12:58.431Z,13.00
2022-10-02T21:15:36.743Z,12.90
2022-10-02T21:18:34.044Z,12.80
2022-10-02T21:21:06.453Z,12.80
2022-10-02T21:23:55.236Z,12.70
2022-10-02T21:26:44.099Z,12.70
2022-10-02T21:29:32.956Z,12.70
2022-10-02T21:32:20.268Z,12.60
2022-10-02T21:35:05.975Z,12.60
2022-10-02T21:37:42.526Z,12.60
2022-10-02T21:40:27.708Z,12.60
2022-10-02T21:43:31.482Z,12.60
2022-10-02T21:46:23.049Z,12.50
2022-10-02T21:49:06.975Z,12.50
2022-10-02T21:51:38.083Z,12.50
2022-10-02T21:54:42.938Z,12.50
2022-10-02T21:57:28.538Z,12.50
2022-10-02T22:00:22.086Z,12.50
2022-10-02T22:03:31.850Z,12.50
2022-10-02T22:06:08.260Z,12.50
2022-10-02T22:08:55.172Z,12.60
2022-10-02T22:11:32.221Z,12.60
2022-10-02T22:14:23.456Z,12.50
2022-10-02T22:17:07.277Z,12.50
2022-10-02T22:19:49.351Z,12.50
2022-10-02T22:22:25.426Z,12.50
2022-10-02T22:25:20.667Z,12.50
2022-10-02T22:28:03.606Z,12.50
2022-10-02T22:30:36.320Z,12.50
2022-10-02T22:33:44.870Z,12.50
2022-10-02T22:36:32.985Z,12.50
2022-10-02T22:39:16.234Z,12.40
2022-10-02T22:42:03.041Z,12.40
2022-10-02T22:44:41.963Z,12.30
2022-10-02T22:47:32.863Z,12.30
2022-10-02T22:50:08.216Z,12.30
2022-10-02T22:52:51.136Z,12.20
2022-10-02T22:55:29.864Z,12.10
2022-10-02T22:57:59.772Z,12.10
2022-10-02T23:00:31.956Z,12.00
2022-10-02T23:03:11.081Z,12.00
2022-10-02T23:05:51.065Z,11.90
2022-10-02T23:08:33.048Z,11.90
2022-10-02T23:11:22.278Z,11.80
2022-10-02T23:14:19.963Z,11.80
2022-10-02T23:17:00.217Z,11.70
2022-10-02T23:20:07.781Z,11.70
2022-10-02T23:22:45.895Z,11.60
2022-10-02T23:25:36.005Z,11.60
2022-10-02T23:28:16.103Z,11.60
2022-10-02T23:30:49.453Z,11.50
2022-10-02T23:33:27.270Z,11.50
2022-10-02T23:36:11.514Z,11.50
2022-10-02T23:38:45.729Z,11.50
2022-10-02T23:41:50.781Z,11.50
2022-10-02T23:44:33.288Z,11.50
2022-10-02T23:47:02.949Z,11.50
2022-10-02T23:49:35.257Z,11.50
2022-10-02T23:52:24.628Z,11.50
2022-10-02T23:55:19.418Z,11.40
2022-10-02T23:58:08.342Z,11.40
